createdAt,value
2023-04-02T00:00:11.173Z,998.09
2023-04-02T00:01:11.177Z,998.10
2023-04-02T00:02:11.157Z,998.18
2023-04-02T00:03:11.255Z,998.27
2023-04-02T00:04:11.204Z,998.15
2023-04-02T00:05:11.116Z,998.28
2023-04-02T00:06:11.086Z,998.25
2023-04-02T00:07:11.091Z,998.32
2023-04-02T00:08:11.078Z,998.28
2023-04-02T00:09:11.100Z,998.35
2023-04-02T00:10:11.109Z,998.31
2023-04-02T00:11:11.063Z,998.41
2023-04-02T00:12:11.038Z,998.35
2023-04-02T00:13:11.029Z,998.43
2023-04-02T00:14:11.026Z,998.37
2023-04-02T00:15:11.013Z,998.37
2023-04-02T00:16:11.023Z,998.47
2023-04-02T00:17:10.990Z,998.32
2023-04-02T00:18:11.044Z,998.47
2023-04-02T00:19:10.967Z,998.50
2023-04-02T00:20:10.980Z,998.51
2023-04-02T00:21:10.982Z,998.53
2023-04-02T00:22:10.955Z,998.54
2023-04-02T00:23:10.933Z,998.58
2023-04-02T00:24:10.978Z,998.69
2023-04-02T00:25:10.915Z,998.66
2023-04-02T00:26:10.888Z,998.67
2023-04-02T00:27:10.910Z,998.71
2023-04-02T00:28:10.882Z,998.78
2023-04-02T00:29:10.901Z,998.73
2023-04-02T00:30:10.849Z,998.65
2023-04-02T00:31:10.843Z,998.78
2023-04-02T00:32:10.930Z,998.76
2023-04-02T00:33:10.864Z,998.77
2023-04-02T00:34:10.812Z,998.76
2023-04-02T00:35:10.817Z,998.81
2023-04-02T00:36:10.834Z,998.83
2023-04-02T00:37:10.852Z,998.88
2023-04-02T00:38:10.832Z,998.82
2023-04-02T00:39:10.792Z,998.89
2023-04-02T00:40:10.764Z,998.95
2023-04-02T00:41:10.780Z,998.92
2023-04-02T00:42:10.742Z,999.15
2023-04-02T00:43:10.730Z,998.94
2023-04-02T00:44:10.739Z,999.06
2023-04-02T00:45:10.713Z,998.99
2023-04-02T00:46:10.722Z,998.96
2023-04-02T00:47:10.727Z,998.97
2023-04-02T00:48:10.704Z,998.98
2023-04-02T00:49:10.702Z,999.07
2023-04-02T00:50:10.684Z,999.11
2023-04-02T00:51:10.673Z,999.03
2023-04-02T00:52:10.700Z,999.08
2023-04-02T00:53:10.658Z,999.29
2023-04-02T00:54:17.131Z,999.08
2023-04-02T00:55:10.610Z,999.11
2023-04-02T00:56:10.583Z,999.17
2023-04-02T00:57:10.635Z,999.28
2023-04-02T00:58:10.568Z,999.21
2023-04-02T00:59:10.575Z,999.24
2023-04-02T01:00:10.585Z,999.31
2023-04-02T01:01:10.675Z,999.30
2023-04-02T01:02:10.565Z,999.31
2023-04-02T01:03:10.838Z,999.33
2023-04-02T01:04:10.506Z,999.28
2023-04-02T01:05:10.523Z,999.36
2023-04-02T01:06:10.800Z,999.37
2023-04-02T01:07:10.478Z,999.40
2023-04-02T01:08:10.480Z,999.40
2023-04-02T01:09:10.474Z,999.42
2023-04-02T01:10:10.447Z,999.43
2023-04-02T01:11:10.466Z,999.43
2023-04-02T01:12:10.465Z,999.44
2023-04-02T01:13:10.465Z,999.46
2023-04-02T01:14:10.417Z,999.49
2023-04-02T01:15:10.399Z,999.55
2023-04-02T01:16:10.435Z,999.53
2023-04-02T01:17:10.376Z,999.54
2023-04-02T01:18:10.403Z,999.64
2023-04-02T01:19:10.384Z,999.64
2023-04-02T01:20:10.407Z,999.66
2023-04-02T01:21:10.335Z,999.61
2023-04-02T01:22:10.371Z,999.70
2023-04-02T01:23:10.313Z,999.71
2023-04-02T01:24:10.347Z,999.66
2023-04-02T01:25:10.294Z,999.67
2023-04-02T01:26:10.337Z,999.68
2023-04-02T01:27:10.267Z,999.72
2023-04-02T01:28:10.261Z,999.74
2023-04-02T01:29:10.299Z,999.72
2023-04-02T01:30:10.302Z,999.78
2023-04-02T01:31:10.306Z,999.78
2023-04-02T01:32:10.240Z,999.85
2023-04-02T01:33:10.231Z,999.82
2023-04-02T01:34:10.219Z,999.88
2023-04-02T01:35:10.207Z,999.89
2023-04-02T01:36:10.208Z,999.92
2023-04-02T01:37:10.187Z,1000.06
2023-04-02T01:38:10.162Z,999.92
2023-04-02T01:39:10.153Z,999.96
2023-04-02T01:40:10.231Z,1000.00
2023-04-02T01:41:10.134Z,1000.01
2023-04-02T01:42:10.164Z,1000.15
2023-04-02T01:43:10.103Z,1000.06
2023-04-02T01:44:10.138Z,1000.05
2023-04-02T01:45:10.099Z,1000.05
2023-04-02T01:46:10.141Z,1000.05
2023-04-02T01:47:10.058Z,1000.10
2023-04-02T01:48:10.084Z,1000.13
2023-04-02T01:49:10.094Z,1000.13
2023-04-02T01:50:10.112Z,1000.20
2023-04-02T01:51:10.074Z,1000.25
2023-04-02T01:52:10.042Z,1000.27
2023-04-02T01:53:10.023Z,1000.33
2023-04-02T01:54:09.992Z,1000.32
2023-04-02T01:55:10.013Z,1000.30
2023-04-02T01:56:10.007Z,1000.35
2023-04-02T01:57:10.047Z,1000.37
2023-04-02T01:58:09.977Z,1000.35
2023-04-02T01:59:09.951Z,1000.38
2023-04-02T02:00:09.979Z,1000.40
2023-04-02T02:01:09.945Z,1000.45
2023-04-02T02:02:09.940Z,1000.47
2023-04-02T02:03:10.042Z,1000.58
2023-04-02T02:04:09.923Z,1000.54
2023-04-02T02:05:09.873Z,1000.45
2023-04-02T02:06:09.983Z,1000.59
2023-04-02T02:07:16.424Z,1000.53
2023-04-02T02:08:09.846Z,1000.47
2023-04-02T02:09:09.872Z,1000.65
2023-04-02T02:10:09.859Z,1000.58
2023-04-02T02:11:09.874Z,1000.68
2023-04-02T02:12:09.836Z,1000.61
2023-04-02T02:13:09.852Z,1000.75
2023-04-02T02:14:09.846Z,1000.63
2023-04-02T02:15:09.811Z,1000.65
2023-04-02T02:16:09.831Z,1000.66
2023-04-02T02:17:09.781Z,1000.70
2023-04-02T02:18:09.777Z,1000.67
2023-04-02T02:19:09.761Z,1000.70
2023-04-02T02:20:09.753Z,1000.72
2023-04-02T02:21:09.749Z,1000.74
2023-04-02T02:22:09.742Z,1000.80
2023-04-02T02:23:09.705Z,1000.80
2023-04-02T02:24:09.727Z,1000.77
2023-04-02T02:25:09.699Z,1000.77
2023-04-02T02:26:09.677Z,1000.79
2023-04-02T02:27:09.686Z,1000.88
2023-04-02T02:28:09.654Z,1000.76
2023-04-02T02:29:09.638Z,1000.87
2023-04-02T02:30:09.655Z,1000.90
2023-04-02T02:31:09.629Z,1000.92
2023-04-02T02:32:09.696Z,1000.93
2023-04-02T02:33:09.636Z,1000.96
2023-04-02T02:34:09.608Z,1000.98
2023-04-02T02:35:09.659Z,1000.98
2023-04-02T02:36:09.741Z,1001.01
2023-04-02T02:37:09.636Z,1001.02
2023-04-02T02:38:09.579Z,1001.03
2023-04-02T02:39:09.582Z,1001.10
2023-04-02T02:40:09.577Z,1001.08
2023-04-02T02:41:09.597Z,1001.14
2023-04-02T02:42:09.572Z,1001.15
2023-04-02T02:43:09.537Z,1001.25
2023-04-02T02:44:09.501Z,1001.21
2023-04-02T02:45:09.597Z,1001.25
2023-04-02T02:46:09.514Z,1001.34
2023-04-02T02:47:09.477Z,1001.22
2023-04-02T02:48:09.607Z,1001.44
2023-04-02T02:49:09.489Z,1001.33
2023-04-02T02:50:09.436Z,1001.32
2023-04-02T02:51:15.161Z,1001.30
2023-04-02T02:52:09.417Z,1001.36
2023-04-02T02:53:09.403Z,1001.31
2023-04-02T02:54:09.403Z,1001.36
2023-04-02T02:55:09.405Z,1001.41
2023-04-02T02:56:09.374Z,1001.38
2023-04-02T02:57:09.527Z,1001.40
2023-04-02T02:58:09.392Z,1001.47
2023-04-02T02:59:09.354Z,1001.52
2023-04-02T03:00:09.366Z,1001.56
2023-04-02T03:01:09.391Z,1001.61
2023-04-02T03:02:09.397Z,1001.56
2023-04-02T03:03:09.445Z,1001.55
2023-04-02T03:04:09.488Z,1001.62
2023-04-02T03:05:09.283Z,1001.60
2023-04-02T03:06:09.313Z,1001.64
2023-04-02T03:07:09.274Z,1001.67
2023-04-02T03:08:09.263Z,1001.63
2023-04-02T03:09:09.300Z,1001.85
2023-04-02T03:10:09.287Z,1001.79
2023-04-02T03:11:09.227Z,1001.81
2023-04-02T03:12:09.215Z,1001.76
2023-04-02T03:13:09.219Z,1001.81
2023-04-02T03:14:09.205Z,1001.82
2023-04-02T03:15:09.194Z,1001.82
2023-04-02T03:16:09.293Z,1001.79
2023-04-02T03:17:09.153Z,1001.97
2023-04-02T03:18:09.164Z,1001.85
2023-04-02T03:19:20.219Z,1001.85
2023-04-02T03:20:09.170Z,1001.86
2023-04-02T03:21:09.120Z,1001.95
2023-04-02T03:22:09.114Z,1001.90
2023-04-02T03:23:09.094Z,1001.88
2023-04-02T03:24:09.125Z,1001.93
2023-04-02T03:25:09.110Z,1001.90
2023-04-02T03:26:09.061Z,1001.92
2023-04-02T03:27:09.166Z,1001.96
2023-04-02T03:28:09.060Z,1002.01
2023-04-02T03:29:09.155Z,1002.07
2023-04-02T03:30:09.047Z,1002.18
2023-04-02T03:31:09.047Z,1002.09
2023-04-02T03:32:09.013Z,1002.12
2023-04-02T03:33:09.030Z,1002.12
2023-04-02T03:34:09.008Z,1002.16
2023-04-02T03:35:09.019Z,1002.16
2023-04-02T03:36:09.018Z,1002.21
2023-04-02T03:37:09.033Z,1002.11
2023-04-02T03:38:09.017Z,1002.22
2023-04-02T03:39:08.934Z,1002.24
2023-04-02T03:40:09.047Z,1002.26
2023-04-02T03:41:08.931Z,1002.23
2023-04-02T03:42:08.927Z,1002.29
2023-04-02T03:43:08.926Z,1002.29
2023-04-02T03:44:08.915Z,1002.28
2023-04-02T03:45:08.885Z,1002.27
2023-04-02T03:46:08.931Z,1002.38
2023-04-02T03:47:08.877Z,1002.35
2023-04-02T03:48:08.890Z,1002.48
2023-04-02T03:49:08.865Z,1002.46
2023-04-02T03:50:08.848Z,1002.44
2023-04-02T03:51:08.828Z,1002.44
2023-04-02T03:52:08.819Z,1002.43
2023-04-02T03:53:08.850Z,1002.49
2023-04-02T03:54:08.849Z,1002.62
2023-04-02T03:55:08.792Z,1002.52
2023-04-02T03:56:08.781Z,1002.54
2023-04-02T03:57:08.840Z,1002.62
2023-04-02T03:58:08.764Z,1002.58
2023-04-02T03:59:08.749Z,1002.62
2023-04-02T04:00:08.766Z,1002.70
2023-04-02T04:01:08.740Z,1002.65
2023-04-02T04:02:08.808Z,1002.70
2023-04-02T04:03:08.810Z,1002.72
2023-04-02T04:04:08.724Z,1002.77
2023-04-02T04:05:08.679Z,1002.84
2023-04-02T04:06:08.689Z,1002.87
2023-04-02T04:07:08.653Z,1002.96
2023-04-02T04:08:08.716Z,1002.88
2023-04-02T04:09:08.644Z,1002.83
2023-04-02T04:10:08.641Z,1002.89
2023-04-02T04:11:08.675Z,1002.92
2023-04-02T04:12:08.630Z,1002.92
2023-04-02T04:13:08.613Z,1002.98
2023-04-02T04:14:08.604Z,1002.92
2023-04-02T04:15:08.588Z,1002.96
2023-04-02T04:16:08.584Z,1003.02
2023-04-02T04:17:08.586Z,1003.02
2023-04-02T04:18:08.604Z,1003.03
2023-04-02T04:19:08.567Z,1003.03
2023-04-02T04:20:08.551Z,1003.06
2023-04-02T04:21:08.610Z,1003.10
2023-04-02T04:22:08.941Z,1003.11
2023-04-02T04:23:08.489Z,1003.22
2023-04-02T04:24:08.517Z,1003.20
2023-04-02T04:25:08.501Z,1003.22
2023-04-02T04:26:08.516Z,1003.20
2023-04-02T04:27:08.439Z,1003.22
2023-04-02T04:28:08.462Z,1003.25
2023-04-02T04:29:08.440Z,1003.28
2023-04-02T04:30:08.471Z,1003.28
2023-04-02T04:32:31.521Z,1003.33
2023-04-02T04:33:32.471Z,1003.37
2023-04-02T04:34:32.571Z,1003.40
2023-04-02T04:35:32.544Z,1003.39
2023-04-02T04:36:32.402Z,1003.39
2023-04-02T04:37:32.398Z,1003.41
2023-04-02T04:38:32.381Z,1003.42
2023-04-02T04:39:32.361Z,1003.46
2023-04-02T04:40:32.498Z,1003.45
2023-04-02T04:41:32.420Z,1003.48
2023-04-02T04:42:32.336Z,1003.49
2023-04-02T04:43:32.355Z,1003.52
2023-04-02T04:44:32.355Z,1003.44
2023-04-02T04:45:32.540Z,1003.55
2023-04-02T04:46:32.336Z,1003.60
2023-04-02T04:47:32.339Z,1003.64
2023-04-02T04:48:32.987Z,1003.77
2023-04-02T04:49:32.269Z,1003.81
2023-04-02T04:50:32.262Z,1003.62
2023-04-02T04:51:32.264Z,1003.74
2023-04-02T04:52:32.204Z,1003.82
2023-04-02T04:53:32.278Z,1003.79
2023-04-02T04:54:32.241Z,1003.85
2023-04-02T04:55:32.194Z,1003.79
2023-04-02T04:56:32.218Z,1003.85
2023-04-02T04:57:32.190Z,1003.85
2023-04-02T04:58:32.163Z,1003.87
2023-04-02T04:59:32.221Z,1003.89
2023-04-02T05:00:32.174Z,1003.93
2023-04-02T05:01:32.201Z,1003.94
2023-04-02T05:02:32.154Z,1003.99
2023-04-02T05:03:32.131Z,1004.04
2023-04-02T05:04:32.126Z,1004.04
2023-04-02T05:05:32.144Z,1004.10
2023-04-02T05:06:32.126Z,1004.11
2023-04-02T05:07:32.084Z,1004.15
2023-04-02T05:08:32.164Z,1004.17
2023-04-02T05:09:32.078Z,1004.19
2023-04-02T05:10:32.049Z,1004.24
2023-04-02T05:11:32.133Z,1004.24
2023-04-02T05:12:32.028Z,1004.28
2023-04-02T05:13:32.111Z,1004.27
2023-04-02T05:14:32.195Z,1004.25
2023-04-02T05:15:32.039Z,1004.31
2023-04-02T05:16:32.107Z,1004.35
2023-04-02T05:17:32.743Z,1004.40
2023-04-02T05:18:31.952Z,1004.40
2023-04-02T05:19:32.217Z,1004.37
2023-04-02T05:20:32.016Z,1004.45
2023-04-02T05:21:31.934Z,1004.48
2023-04-02T05:22:31.922Z,1004.51
2023-04-02T05:23:31.936Z,1004.58
2023-04-02T05:24:31.921Z,1004.57
2023-04-02T05:25:31.928Z,1004.58
2023-04-02T05:26:31.922Z,1004.59
2023-04-02T05:27:31.878Z,1004.63
2023-04-02T05:28:31.846Z,1004.59
2023-04-02T05:29:31.874Z,1004.65
2023-04-02T05:30:31.909Z,1004.63
2023-04-02T05:31:31.877Z,1004.68
2023-04-02T05:32:31.875Z,1004.70
2023-04-02T05:33:31.827Z,1004.78
2023-04-02T05:34:31.801Z,1004.86
2023-04-02T05:35:31.886Z,1004.78
2023-04-02T05:36:31.779Z,1004.93
2023-04-02T05:37:31.813Z,1004.85
2023-04-02T05:38:31.820Z,1004.90
2023-04-02T05:39:31.778Z,1004.89
2023-04-02T05:40:31.787Z,1004.91
2023-04-02T05:41:31.857Z,1004.97
2023-04-02T05:42:31.771Z,1004.99
2023-04-02T05:43:40.797Z,1005.01
2023-04-02T05:44:31.741Z,1005.06
2023-04-02T05:45:31.727Z,1005.08
2023-04-02T05:46:31.698Z,1005.13
2023-04-02T05:47:31.730Z,1005.22
2023-04-02T05:48:31.874Z,1005.13
2023-04-02T05:49:31.684Z,1005.20
2023-04-02T05:50:31.644Z,1005.18
2023-04-02T05:51:31.682Z,1005.24
2023-04-02T05:52:31.625Z,1005.25
2023-04-02T05:53:31.648Z,1005.24
2023-04-02T05:54:31.619Z,1005.27
2023-04-02T05:55:31.624Z,1005.29
2023-04-02T05:56:31.637Z,1005.28
2023-04-02T05:57:42.786Z,1005.28
2023-04-02T05:58:36.309Z,1005.30
2023-04-02T05:59:31.631Z,1005.29
2023-04-02T06:00:31.565Z,1005.36
2023-04-02T06:01:31.680Z,1005.35
2023-04-02T06:02:31.698Z,1005.36
2023-04-02T06:03:31.657Z,1005.36
2023-04-02T06:04:31.532Z,1005.36
2023-04-02T06:05:31.538Z,1005.41
2023-04-02T06:06:31.500Z,1005.49
2023-04-02T06:07:31.495Z,1005.52
2023-04-02T06:08:42.073Z,1005.47
2023-04-02T06:09:31.452Z,1005.53
2023-04-02T06:10:31.535Z,1005.51
2023-04-02T06:11:31.463Z,1005.56
2023-04-02T06:12:31.450Z,1005.58
2023-04-02T06:13:31.723Z,1005.61
2023-04-02T06:18:18.692Z,1005.78
2023-04-02T06:19:19.614Z,1005.79
2023-04-02T06:20:19.635Z,1005.86
2023-04-02T06:21:19.589Z,1005.87
2023-04-02T06:22:19.495Z,1005.91
2023-04-02T06:33:28.806Z,1006.13
2023-04-02T06:34:29.583Z,1006.16
2023-04-02T06:35:29.626Z,1006.16
2023-04-02T06:45:16.986Z,1006.39
2023-04-02T06:46:17.966Z,1006.42
2023-04-02T06:47:17.964Z,1006.41
2023-04-02T06:48:17.912Z,1006.44
2023-04-02T06:49:17.906Z,1006.47
2023-04-02T06:50:17.948Z,1006.48
2023-04-02T06:51:17.909Z,1006.52
2023-04-02T06:52:17.889Z,1006.52
2023-04-02T06:53:17.902Z,1006.59
2023-04-02T06:54:17.974Z,1006.57
2023-04-02T06:55:18.036Z,1006.61
2023-04-02T06:56:17.947Z,1006.59
2023-04-02T07:12:09.106Z,1006.85
2023-04-02T07:13:09.841Z,1006.86
2023-04-02T07:14:09.722Z,1006.87
2023-04-02T07:15:10.680Z,1006.86
2023-04-02T07:16:09.786Z,1006.93
2023-04-02T07:17:09.687Z,1007.07
2023-04-02T07:18:09.900Z,1007.09
2023-04-02T07:19:09.667Z,1007.05
2023-04-02T07:20:09.678Z,1007.07
2023-04-02T07:21:09.721Z,1007.10
2023-04-02T07:22:09.698Z,1007.21
2023-04-02T07:23:09.617Z,1007.20
2023-04-02T07:24:09.649Z,1007.20
2023-04-02T07:25:09.605Z,1007.33
2023-04-02T07:26:09.593Z,1007.35
2023-04-02T07:27:09.616Z,1007.37
2023-04-02T07:28:09.611Z,1007.32
2023-04-02T07:29:09.562Z,1007.47
2023-04-02T07:30:09.557Z,1007.40
2023-04-02T07:31:09.601Z,1007.37
2023-04-02T07:32:09.582Z,1007.40
2023-04-02T07:33:09.558Z,1007.46
2023-04-02T07:34:09.505Z,1007.45
2023-04-02T07:35:09.503Z,1007.47
2023-04-02T07:36:09.584Z,1007.49
2023-04-02T07:37:09.453Z,1007.46
2023-04-02T07:38:09.608Z,1007.40
2023-04-02T07:39:09.471Z,1007.49
2023-04-02T07:40:09.447Z,1007.52
2023-04-02T07:41:09.458Z,1007.54
2023-04-02T07:42:09.495Z,1007.60
2023-04-02T07:43:09.420Z,1007.53
2023-04-02T07:44:09.408Z,1007.53
2023-04-02T07:45:09.418Z,1007.55
2023-04-02T07:46:09.410Z,1007.62
2023-04-02T07:47:09.480Z,1007.62
2023-04-02T07:48:09.561Z,1007.61
2023-04-02T07:49:09.363Z,1007.60
2023-04-02T07:50:09.374Z,1007.67
2023-04-02T07:51:09.385Z,1007.65
2023-04-02T07:52:09.327Z,1007.64
2023-04-02T07:53:09.320Z,1007.64
2023-04-02T07:54:09.350Z,1007.68
2023-04-02T07:55:09.305Z,1007.68
2023-04-02T07:56:09.302Z,1007.73
2023-04-02T07:57:09.303Z,1007.71
2023-04-02T07:58:09.273Z,1007.73
2023-04-02T07:59:09.248Z,1007.76
2023-04-02T08:00:09.257Z,1007.80
2023-04-02T08:01:09.225Z,1007.79
2023-04-02T08:02:09.227Z,1007.86
2023-04-02T08:03:09.325Z,1007.92
2023-04-02T08:04:09.233Z,1007.82
2023-04-02T08:05:09.198Z,1007.81
2023-04-02T08:06:09.192Z,1007.84
2023-04-02T08:07:09.168Z,1007.89
2023-04-02T08:08:09.164Z,1007.84
2023-04-02T08:09:09.151Z,1007.85
2023-04-02T08:10:09.157Z,1007.87
2023-04-02T08:11:09.161Z,1007.90
2023-04-02T08:12:09.124Z,1007.89
2023-04-02T08:13:09.102Z,1007.93
2023-04-02T08:14:09.100Z,1007.96
2023-04-02T08:15:09.211Z,1007.91
2023-04-02T08:16:09.140Z,1007.97
2023-04-02T08:17:09.060Z,1007.96
2023-04-02T08:18:09.085Z,1007.93
2023-04-02T08:19:09.037Z,1008.00
2023-04-02T08:20:09.037Z,1008.03
2023-04-02T08:21:09.040Z,1008.05
2023-04-02T08:22:09.026Z,1008.11
2023-04-02T08:23:09.005Z,1008.10
2023-04-02T08:24:09.048Z,1008.12
2023-04-02T08:25:08.973Z,1008.13
2023-04-02T08:26:08.981Z,1008.21
2023-04-02T08:27:08.997Z,1008.19
2023-04-02T08:28:08.955Z,1008.23
2023-04-02T08:29:08.960Z,1008.27
2023-04-02T08:30:08.931Z,1008.31
2023-04-02T08:31:09.043Z,1008.28
2023-04-02T08:32:08.920Z,1008.37
2023-04-02T08:33:08.934Z,1008.35
2023-04-02T08:34:09.070Z,1008.40
2023-04-02T08:35:08.878Z,1008.45
2023-04-02T08:36:10.428Z,1008.45
2023-04-02T08:37:08.854Z,1008.40
2023-04-02T08:38:08.868Z,1008.52
2023-04-02T08:39:08.850Z,1008.54
2023-04-02T08:40:08.829Z,1008.64
2023-04-02T08:41:08.827Z,1008.70
2023-04-02T08:42:08.821Z,1008.59
2023-04-02T08:43:08.819Z,1008.71
2023-04-02T08:44:08.803Z,1008.74
2023-04-02T08:45:23.723Z,1008.75
2023-04-02T08:46:08.836Z,1008.75
2023-04-02T08:47:08.774Z,1008.76
2023-04-02T08:48:08.818Z,1008.85
2023-04-02T08:49:08.744Z,1008.83
2023-04-02T08:50:08.729Z,1008.86
2023-04-02T08:51:08.707Z,1008.86
2023-04-02T08:52:08.766Z,1008.88
2023-04-02T08:53:08.695Z,1008.91
2023-04-02T08:54:08.717Z,1008.88
2023-04-02T08:55:08.667Z,1008.90
2023-04-02T08:56:08.668Z,1009.02
2023-04-02T08:57:08.704Z,1008.93
2023-04-02T08:58:08.635Z,1009.09
2023-04-02T08:59:08.700Z,1008.93
2023-04-02T09:00:08.620Z,1008.91
2023-04-02T09:01:08.689Z,1008.91
2023-04-02T09:02:08.589Z,1008.97
2023-04-02T09:03:08.624Z,1008.98
2023-04-02T09:04:08.614Z,1009.03
2023-04-02T09:05:08.691Z,1009.04
2023-04-02T09:06:08.547Z,1009.06
2023-04-02T09:07:08.547Z,1009.01
2023-04-02T09:08:08.523Z,1009.03
2023-04-02T09:09:08.543Z,1009.01
2023-04-02T09:10:08.545Z,1009.04
2023-04-02T09:11:08.511Z,1009.11
2023-04-02T09:12:08.487Z,1009.09
2023-04-02T09:13:08.487Z,1009.10
2023-04-02T09:14:08.484Z,1009.07
2023-04-02T09:15:08.468Z,1009.06
2023-04-02T09:16:08.510Z,1009.15
2023-04-02T09:17:08.450Z,1009.14
2023-04-02T09:18:08.442Z,1009.20
2023-04-02T09:19:08.429Z,1009.28
2023-04-02T09:20:08.411Z,1009.22
2023-04-02T09:21:08.437Z,1009.23
2023-04-02T09:22:08.387Z,1009.31
2023-04-02T09:23:08.399Z,1009.30
2023-04-02T09:24:08.375Z,1009.30
2023-04-02T09:25:14.954Z,1009.31
2023-04-02T09:26:08.370Z,1009.36
2023-04-02T09:27:08.380Z,1009.45
2023-04-02T09:28:08.322Z,1009.43
2023-04-02T09:29:08.357Z,1009.44
2023-04-02T09:30:08.305Z,1009.45
2023-04-02T09:31:08.340Z,1009.45
2023-04-02T09:32:08.290Z,1009.47
2023-04-02T09:33:08.364Z,1009.56
2023-04-02T09:34:08.261Z,1009.55
2023-04-02T09:35:15.059Z,1009.55
2023-04-02T09:36:08.269Z,1009.57
2023-04-02T09:37:08.262Z,1009.62
2023-04-02T09:38:08.276Z,1009.67
2023-04-02T09:39:08.256Z,1009.66
2023-04-02T09:40:08.253Z,1009.67
2023-04-02T09:41:08.206Z,1009.75
2023-04-02T09:42:08.189Z,1009.74
2023-04-02T09:43:08.191Z,1009.80
2023-04-02T09:44:08.183Z,1009.69
2023-04-02T09:45:08.172Z,1009.76
2023-04-02T09:46:08.170Z,1009.79
2023-04-02T09:47:08.147Z,1009.75
2023-04-02T09:48:08.767Z,1009.76
2023-04-02T09:49:08.127Z,1009.81
2023-04-02T09:50:08.151Z,1009.76
2023-04-02T09:51:08.160Z,1009.78
2023-04-02T09:52:08.113Z,1009.81
2023-04-02T09:53:08.080Z,1009.82
2023-04-02T09:54:08.118Z,1009.83
2023-04-02T09:55:08.101Z,1009.81
2023-04-02T09:56:08.050Z,1009.85
2023-04-02T09:57:08.175Z,1009.93
2023-04-02T09:58:08.026Z,1009.95
2023-04-02T09:59:08.390Z,1009.93
2023-04-02T10:00:12.280Z,1009.95
2023-04-02T10:01:08.116Z,1009.95
2023-04-02T10:02:07.997Z,1010.00
2023-04-02T10:03:08.046Z,1009.96
2023-04-02T10:04:08.066Z,1010.00
2023-04-02T10:05:08.829Z,1009.96
2023-04-02T10:06:07.944Z,1009.96
2023-04-02T10:07:07.959Z,1009.99
2023-04-02T10:08:07.924Z,1009.99
2023-04-02T10:09:07.923Z,1010.08
2023-04-02T10:10:07.921Z,1010.11
2023-04-02T10:11:07.891Z,1010.14
2023-04-02T10:12:08.323Z,1010.14
2023-04-02T10:13:07.878Z,1010.17
2023-04-02T10:14:08.066Z,1010.19
2023-04-02T10:15:07.900Z,1010.13
2023-04-02T10:16:07.925Z,1010.20
2023-04-02T10:17:07.863Z,1010.12
2023-04-02T10:18:07.904Z,1010.16
2023-04-02T10:19:07.854Z,1010.18
2023-04-02T10:20:07.809Z,1010.25
2023-04-02T10:21:07.794Z,1010.20
2023-04-02T10:22:07.774Z,1010.17
2023-04-02T10:23:07.792Z,1010.21
2023-04-02T10:24:07.772Z,1010.22
2023-04-02T10:25:07.743Z,1010.27
2023-04-02T10:26:07.719Z,1010.25
2023-04-02T10:27:07.741Z,1010.36
2023-04-02T10:28:07.720Z,1010.30
2023-04-02T10:29:07.760Z,1010.35
2023-04-02T10:30:07.710Z,1010.39
2023-04-02T10:31:07.725Z,1010.34
2023-04-02T10:32:07.685Z,1010.33
2023-04-02T10:33:07.704Z,1010.35
2023-04-02T10:34:07.653Z,1010.49
2023-04-02T10:35:07.685Z,1010.44
2023-04-02T10:36:07.781Z,1010.42
2023-04-02T10:37:07.649Z,1010.45
2023-04-02T10:38:07.627Z,1010.47
2023-04-02T10:39:07.597Z,1010.55
2023-04-02T10:40:07.602Z,1010.47
2023-04-02T10:41:07.593Z,1010.48
2023-04-02T10:42:07.569Z,1010.48
2023-04-02T10:43:07.589Z,1010.56
2023-04-02T10:44:18.940Z,1010.45
2023-04-02T10:45:07.559Z,1010.55
2023-04-02T10:46:07.583Z,1010.65
2023-04-02T10:47:07.533Z,1010.63
2023-04-02T10:48:07.574Z,1010.57
2023-04-02T10:49:07.602Z,1010.56
2023-04-02T10:50:07.476Z,1010.56
2023-04-02T10:51:07.492Z,1010.54
2023-04-02T10:52:07.473Z,1010.53
2023-04-02T10:53:07.488Z,1010.59
2023-04-02T10:54:07.517Z,1010.59
2023-04-02T10:55:07.448Z,1010.62
2023-04-02T10:56:07.423Z,1010.55
2023-04-02T10:57:07.516Z,1010.58
2023-04-02T10:58:07.419Z,1010.68
2023-04-02T10:59:07.428Z,1010.66
2023-04-02T11:00:07.403Z,1010.60
2023-04-02T11:01:07.411Z,1010.62
2023-04-02T11:02:07.357Z,1010.53
2023-04-02T11:03:07.505Z,1010.65
2023-04-02T11:04:07.360Z,1010.63
2023-04-02T11:05:07.364Z,1010.61
2023-04-02T11:06:07.317Z,1010.71
2023-04-02T11:07:14.302Z,1010.75
2023-04-02T11:08:07.314Z,1010.77
2023-04-02T11:09:07.312Z,1010.86
2023-04-02T11:10:07.303Z,1010.85
2023-04-02T11:11:07.292Z,1010.99
2023-04-02T11:12:07.278Z,1010.90
2023-04-02T11:13:07.257Z,1010.97
2023-04-02T11:14:07.265Z,1010.99
2023-04-02T11:15:07.234Z,1010.95
2023-04-02T11:16:07.277Z,1010.96
2023-04-02T11:17:07.207Z,1010.86
2023-04-02T11:18:07.200Z,1011.01
2023-04-02T11:19:07.228Z,1010.97
2023-04-02T11:20:07.221Z,1010.97
2023-04-02T11:21:07.181Z,1010.98
2023-04-02T11:22:07.168Z,1010.98
2023-04-02T11:23:07.143Z,1011.11
2023-04-02T11:24:07.143Z,1010.99
2023-04-02T11:25:07.149Z,1011.01
2023-04-02T11:26:07.107Z,1011.02
2023-04-02T11:27:07.121Z,1011.00
2023-04-02T11:28:07.117Z,1011.07
2023-04-02T11:29:07.093Z,1011.05
2023-04-02T11:30:07.103Z,1011.06
2023-04-02T11:31:07.108Z,1011.16
2023-04-02T11:32:07.054Z,1011.16
2023-04-02T11:33:07.107Z,1011.17
2023-04-02T11:34:07.029Z,1011.20
2023-04-02T11:35:09.851Z,1011.17
2023-04-02T11:36:07.052Z,1011.25
2023-04-02T11:37:07.041Z,1011.20
2023-04-02T11:38:06.983Z,1011.27
2023-04-02T11:39:16.580Z,1011.24
2023-04-02T11:40:07.176Z,1011.27
2023-04-02T11:41:06.966Z,1011.25
2023-04-02T11:42:06.957Z,1011.31
2023-04-02T11:43:06.953Z,1011.20
2023-04-02T11:44:06.978Z,1011.30
2023-04-02T11:45:06.968Z,1011.20
2023-04-02T11:46:06.922Z,1011.16
2023-04-02T11:47:06.904Z,1011.17
2023-04-02T11:48:06.942Z,1011.17
2023-04-02T11:49:06.880Z,1011.17
2023-04-02T11:50:06.914Z,1011.18
2023-04-02T11:51:06.911Z,1011.19
2023-04-02T11:52:12.318Z,1011.20
2023-04-02T11:53:06.863Z,1011.18
2023-04-02T11:54:06.834Z,1011.19
2023-04-02T11:55:06.833Z,1011.22
2023-04-02T11:56:06.808Z,1011.16
2023-04-02T11:57:06.857Z,1011.19
2023-04-02T11:58:06.781Z,1011.20
2023-04-02T11:59:06.793Z,1011.36
2023-04-02T12:00:06.800Z,1011.35
2023-04-02T12:01:06.757Z,1011.34
2023-04-02T12:02:06.824Z,1011.38
2023-04-02T12:03:06.883Z,1011.41
2023-04-02T12:04:06.751Z,1011.50
2023-04-02T12:05:06.830Z,1011.43
2023-04-02T12:06:06.725Z,1011.49
2023-04-02T12:07:06.697Z,1011.46
2023-04-02T12:08:06.676Z,1011.54
2023-04-02T12:09:06.675Z,1011.52
2023-04-02T12:10:06.704Z,1011.63
2023-04-02T12:11:06.660Z,1011.56
2023-04-02T12:12:06.664Z,1011.54
2023-04-02T12:13:06.631Z,1011.55
2023-04-02T12:14:06.612Z,1011.52
2023-04-02T12:15:06.619Z,1011.48
2023-04-02T12:16:06.605Z,1011.49
2023-04-02T12:17:09.304Z,1011.59
2023-04-02T12:18:06.637Z,1011.55
2023-04-02T12:19:06.570Z,1011.56
2023-04-02T12:20:06.557Z,1011.52
2023-04-02T12:21:06.545Z,1011.55
2023-04-02T12:22:06.533Z,1011.55
2023-04-02T12:23:06.537Z,1011.55
2023-04-02T12:24:06.514Z,1011.57
2023-04-02T12:25:06.602Z,1011.70
2023-04-02T12:26:06.488Z,1011.58
2023-04-02T12:27:06.488Z,1011.58
2023-04-02T12:28:06.488Z,1011.58
2023-04-02T12:29:06.454Z,1011.62
2023-04-02T12:30:06.461Z,1011.57
2023-04-02T12:31:06.471Z,1011.61
2023-04-02T12:32:06.424Z,1011.63
2023-04-02T12:33:06.422Z,1011.65
2023-04-02T12:34:06.431Z,1011.63
2023-04-02T12:35:06.401Z,1011.74
2023-04-02T12:36:06.394Z,1011.80
2023-04-02T12:37:06.377Z,1011.80
2023-04-02T12:38:06.351Z,1011.75
2023-04-02T12:39:06.363Z,1011.75
2023-04-02T12:40:06.401Z,1011.73
2023-04-02T12:41:06.323Z,1011.80
2023-04-02T12:42:06.300Z,1011.73
2023-04-02T12:43:06.349Z,1011.88
2023-04-02T12:44:06.329Z,1011.82
2023-04-02T12:45:06.315Z,1011.92
2023-04-02T12:46:06.313Z,1011.82
2023-04-02T12:47:06.285Z,1011.91